createdAt,value
2023-03-02T00:01:13.567Z,12.90
2023-03-02T00:04:22.136Z,12.40
2023-03-02T00:07:29.806Z,16.70
2023-03-02T00:10:38.196Z,15.10
2023-03-02T00:13:45.919Z,17.40
2023-03-02T00:16:53.604Z,14.10
2023-03-02T00:20:01.603Z,20.00
2023-03-02T00:23:09.288Z,16.40
2023-03-02T00:26:17.190Z,16.90
2023-03-02T00:29:25.458Z,16.60
2023-03-02T00:32:32.897Z,14.60
2023-03-02T00:35:40.797Z,14.10
2023-03-02T00:38:48.936Z,14.10
2023-03-02T00:41:56.276Z,16.50
2023-03-02T00:45:04.361Z,13.50
2023-03-02T00:48:12.588Z,20.10
2023-03-02T00:51:20.080Z,25.10
2023-03-02T00:54:28.234Z,14.30
2023-03-02T00:57:36.568Z,13.90
2023-03-02T01:00:43.911Z,13.40
2023-03-02T01:03:52.003Z,13.80
2023-03-02T01:06:59.667Z,15.90
2023-03-02T01:10:08.032Z,14.70
2023-03-02T01:13:15.627Z,12.30
2023-03-02T01:16:23.205Z,13.60
2023-03-02T01:19:31.522Z,12.80
2023-03-02T01:22:38.863Z,12.30
2023-03-02T01:25:46.400Z,14.30
2023-03-02T01:28:53.840Z,12.40
2023-03-02T01:32:00.983Z,12.30
2023-03-02T01:35:08.767Z,14.20
2023-03-02T01:38:16.565Z,12.90
2023-03-02T01:41:23.652Z,13.20
2023-03-02T01:44:31.277Z,16.30
2023-03-02T01:47:39.047Z,14.20
2023-03-02T01:50:46.002Z,13.30
2023-03-02T01:53:55.204Z,13.10
2023-03-02T01:57:02.771Z,13.30
2023-03-02T02:00:10.017Z,13.30
2023-03-02T02:03:17.317Z,17.40
2023-03-02T02:06:24.735Z,12.20
2023-03-02T02:09:32.145Z,12.50
2023-03-02T02:12:39.170Z,12.00
2023-03-02T02:15:46.979Z,11.60
2023-03-02T02:18:54.345Z,11.40
2023-03-02T02:22:01.431Z,24.40
2023-03-02T02:25:09.088Z,14.20
2023-03-02T02:28:17.050Z,16.50
2023-03-02T02:31:24.097Z,13.00
2023-03-02T02:34:31.800Z,15.70
2023-03-02T02:37:38.819Z,13.80
2023-03-02T02:40:46.714Z,13.90
2023-03-02T02:43:54.563Z,14.30
2023-03-02T02:47:02.089Z,13.90
2023-03-02T02:50:09.661Z,12.90
2023-03-02T02:53:17.128Z,16.70
2023-03-02T02:56:25.172Z,13.90
2023-03-02T02:59:32.504Z,17.30
2023-03-02T03:02:40.061Z,15.50
2023-03-02T03:05:47.870Z,16.60
2023-03-02T03:08:54.870Z,15.30
2023-03-02T03:12:02.813Z,15.90
2023-03-02T03:15:10.645Z,12.90
2023-03-02T03:18:17.661Z,15.70
2023-03-02T03:21:25.459Z,15.70
2023-03-02T03:24:33.393Z,15.70
2023-03-02T03:27:40.458Z,16.20
2023-03-02T03:30:48.515Z,15.10
2023-03-02T03:33:55.832Z,17.80
2023-03-02T03:37:03.168Z,18.20
2023-03-02T03:40:11.102Z,20.30
2023-03-02T03:43:18.365Z,21.50
2023-03-02T03:46:25.823Z,25.80
2023-03-02T03:49:33.590Z,28.60
2023-03-02T03:52:41.196Z,23.80
2023-03-02T03:55:48.538Z,31.80
2023-03-02T03:58:55.860Z,32.30
2023-03-02T04:02:03.830Z,39.00
2023-03-02T04:05:11.247Z,31.60
2023-03-02T04:08:18.296Z,35.70
2023-03-02T04:11:26.186Z,39.30
2023-03-02T04:14:33.614Z,39.30
2023-03-02T04:17:40.896Z,44.60
2023-03-02T04:20:48.528Z,44.30
2023-03-02T04:23:55.576Z,41.10
2023-03-02T04:27:03.397Z,44.10
2023-03-02T04:30:10.702Z,44.70
2023-03-02T04:33:17.828Z,56.50
2023-03-02T04:36:25.598Z,56.90
2023-03-02T04:39:33.329Z,70.40
2023-03-02T04:42:40.871Z,72.40
2023-03-02T04:45:48.304Z,77.90
2023-03-02T04:48:56.060Z,76.80
2023-03-02T04:52:03.408Z,87.40
2023-03-02T04:55:10.963Z,85.80
2023-03-02T04:58:18.257Z,76.00
2023-03-02T05:01:26.128Z,89.10
2023-03-02T05:04:33.854Z,68.30
2023-03-02T05:07:41.505Z,88.30
2023-03-02T05:10:49.699Z,96.80
2023-03-02T05:13:57.075Z,86.50
2023-03-02T05:17:04.682Z,90.20
2023-03-02T05:20:12.279Z,84.80
2023-03-02T05:23:19.630Z,89.30
2023-03-02T05:26:26.959Z,86.00
2023-03-02T05:29:34.594Z,97.30
2023-03-02T05:32:41.538Z,92.10
2023-03-02T05:35:49.444Z,111.10
2023-03-02T05:38:57.184Z,136.10
2023-03-02T05:42:04.202Z,244.10
2023-03-02T05:45:11.968Z,193.80
2023-03-02T05:48:19.634Z,76.60
2023-03-02T05:51:27.176Z,116.60
2023-03-02T05:54:35.189Z,88.90
2023-03-02T05:57:42.748Z,127.10
2023-03-02T06:00:50.566Z,92.40
2023-03-02T06:03:58.291Z,128.00
2023-03-02T06:07:05.690Z,113.30
2023-03-02T06:10:13.008Z,95.70
2023-03-02T06:13:21.017Z,142.50
2023-03-02T06:16:28.449Z,128.50
2023-03-02T06:19:35.757Z,300.90
2023-03-02T06:22:43.325Z,378.60
2023-03-02T06:25:51.195Z,118.70
2023-03-02T06:28:58.856Z,86.40
2023-03-02T06:32:06.145Z,87.30
2023-03-02T06:35:13.846Z,126.10
2023-03-02T06:38:21.051Z,88.80
2023-03-02T06:41:28.481Z,109.90
2023-03-02T06:44:36.213Z,84.70
2023-03-02T06:47:43.638Z,83.80
2023-03-02T06:50:50.879Z,97.10
2023-03-02T06:53:58.729Z,81.00
2023-03-02T06:57:05.803Z,79.90
2023-03-02T07:00:13.504Z,270.90
2023-03-02T07:03:20.929Z,76.80
2023-03-02T07:06:27.919Z,311.80
2023-03-02T07:09:35.642Z,71.00
2023-03-02T07:12:43.318Z,89.50
2023-03-02T07:15:50.405Z,96.80
2023-03-02T07:18:58.218Z,92.40
2023-03-02T07:22:05.792Z,90.60
2023-03-02T07:25:12.973Z,181.50
2023-03-02T07:28:20.495Z,75.30
2023-03-02T07:31:27.958Z,89.90
2023-03-02T07:34:35.354Z,82.10
2023-03-02T07:37:42.704Z,102.90
2023-03-02T07:40:50.192Z,78.50
2023-03-02T07:43:57.509Z,171.80
2023-03-02T07:47:04.614Z,84.80
2023-03-02T07:50:12.449Z,75.90
2023-03-02T07:53:20.178Z,61.70
2023-03-02T07:56:27.084Z,69.00
2023-03-02T07:59:34.746Z,80.30
2023-03-02T08:02:42.424Z,69.30
2023-03-02T08:05:49.508Z,68.60
2023-03-02T08:08:57.067Z,96.60
2023-03-02T08:12:04.772Z,50.20
2023-03-02T08:15:11.720Z,52.60
2023-03-02T08:18:19.318Z,41.10
2023-03-02T08:21:26.550Z,40.60
2023-03-02T08:24:33.861Z,46.10
2023-03-02T08:27:41.709Z,61.60
2023-03-02T08:30:48.870Z,43.20
2023-03-02T08:33:56.245Z,38.10
2023-03-02T08:37:03.802Z,54.90
2023-03-02T08:40:11.067Z,42.20
2023-03-02T08:43:18.553Z,56.10
2023-03-02T08:46:25.948Z,41.40
2023-03-02T08:49:33.429Z,40.20
2023-03-02T08:52:40.712Z,61.40
2023-03-02T08:55:47.904Z,172.70
2023-03-02T08:58:55.559Z,34.40
2023-03-02T09:02:03.091Z,32.50
2023-03-02T09:05:10.402Z,33.40
2023-03-02T09:08:18.366Z,31.10
2023-03-02T09:11:25.782Z,30.40
2023-03-02T09:14:33.064Z,27.40
2023-03-02T09:17:40.540Z,29.60
2023-03-02T09:20:47.509Z,27.20
2023-03-02T09:23:55.224Z,35.90
2023-03-02T09:27:02.731Z,29.00
2023-03-02T09:30:09.778Z,24.60
2023-03-02T09:33:17.547Z,28.90
2023-03-02T09:36:25.278Z,24.80
2023-03-02T09:39:32.265Z,27.00
2023-03-02T09:42:44.136Z,27.70
2023-03-02T09:45:40.959Z,24.40
2023-03-02T09:48:48.386Z,43.20
2023-03-02T09:51:56.167Z,22.20
2023-03-02T09:55:03.408Z,20.50
2023-03-02T09:58:10.682Z,22.30
2023-03-02T10:01:18.269Z,22.40
2023-03-02T10:04:25.807Z,18.60
2023-03-02T10:07:33.132Z,19.40
2023-03-02T10:10:41.162Z,20.20
2023-03-02T10:13:48.867Z,20.50
2023-03-02T10:16:56.234Z,19.00
2023-03-02T10:20:03.517Z,20.60
2023-03-02T10:23:11.470Z,21.20
2023-03-02T10:26:18.617Z,21.20
2023-03-02T10:29:25.948Z,18.40
2023-03-02T10:32:33.638Z,19.90
2023-03-02T10:35:41.693Z,18.50
2023-03-02T10:38:49.181Z,21.20
2023-03-02T10:41:57.106Z,17.70
2023-03-02T10:45:04.183Z,18.70
2023-03-02T10:48:11.835Z,18.10
2023-03-02T10:51:19.331Z,18.90
2023-03-02T10:54:26.173Z,20.10
2023-03-02T10:57:33.832Z,19.30
2023-03-02T11:00:41.231Z,18.90
2023-03-02T11:03:48.484Z,19.50
2023-03-02T11:06:56.118Z,20.90
2023-03-02T11:10:03.645Z,20.10
2023-03-02T11:13:11.167Z,22.30
2023-03-02T11:16:19.021Z,21.30
2023-03-02T11:19:26.357Z,20.30
2023-03-02T11:22:33.690Z,18.50
2023-03-02T11:25:41.324Z,19.00
2023-03-02T11:28:48.870Z,17.60
2023-03-02T11:31:56.929Z,17.90
2023-03-02T11:35:04.184Z,21.60
2023-03-02T11:38:11.978Z,18.30
2023-03-02T11:41:19.507Z,17.00
2023-03-02T11:44:26.863Z,18.60
2023-03-02T11:47:34.808Z,18.30
2023-03-02T11:50:42.005Z,17.50
2023-03-02T11:53:49.542Z,19.60
2023-03-02T11:56:57.203Z,16.80
2023-03-02T12:00:04.547Z,18.70
2023-03-02T12:03:11.897Z,16.10
2023-03-02T12:06:19.314Z,18.20
2023-03-02T12:09:27.105Z,16.60
2023-03-02T12:12:34.405Z,16.00
2023-03-02T12:15:41.803Z,16.10
2023-03-02T12:18:49.721Z,16.20
2023-03-02T12:21:57.050Z,18.40
2023-03-02T12:25:04.501Z,18.00
2023-03-02T12:28:12.195Z,16.80
2023-03-02T12:31:19.518Z,17.60
2023-03-02T12:34:26.812Z,19.80
2023-03-02T12:37:34.527Z,19.70
2023-03-02T12:40:42.245Z,20.60
2023-03-02T12:43:50.140Z,23.10
2023-03-02T12:46:57.715Z,21.60
2023-03-02T12:50:04.946Z,25.50
2023-03-02T12:53:12.207Z,24.90
2023-03-02T12:56:19.479Z,25.50
2023-03-02T12:59:26.717Z,23.90
2023-03-02T13:02:34.112Z,26.50
2023-03-02T13:05:41.352Z,23.70
2023-03-02T13:08:48.987Z,21.90
2023-03-02T13:11:56.371Z,24.00
2023-03-02T13:15:03.926Z,24.20
2023-03-02T13:18:12.270Z,20.90
2023-03-02T13:21:19.329Z,24.10
2023-03-02T13:24:27.017Z,22.00
2023-03-02T13:27:34.606Z,22.50
2023-03-02T13:30:41.943Z,21.70
2023-03-02T13:33:49.770Z,20.50
2023-03-02T13:36:57.017Z,21.80
2023-03-02T13:40:04.385Z,19.10
2023-03-02T13:43:12.466Z,19.80
2023-03-02T13:46:19.782Z,19.80
2023-03-02T13:49:27.147Z,17.70
2023-03-02T13:52:34.149Z,19.20
2023-03-02T13:55:41.897Z,17.80
2023-03-02T13:58:49.694Z,17.10
2023-03-02T14:01:57.508Z,18.50
2023-03-02T14:05:05.058Z,16.60
2023-03-02T14:08:12.307Z,18.20
2023-03-02T14:11:19.704Z,21.30
2023-03-02T14:14:27.561Z,19.50
2023-03-02T14:17:34.790Z,19.90
2023-03-02T14:20:42.159Z,16.20
2023-03-02T14:23:49.813Z,18.90
2023-03-02T14:26:57.783Z,19.10
2023-03-02T14:30:05.295Z,17.40
2023-03-02T14:33:12.857Z,16.20
2023-03-02T14:36:20.737Z,15.60
2023-03-02T14:39:27.755Z,17.00
2023-03-02T14:42:35.463Z,16.50
2023-03-02T14:45:43.313Z,16.40
2023-03-02T14:48:50.239Z,16.60
2023-03-02T14:51:57.680Z,17.10
2023-03-02T14:55:05.403Z,18.90
2023-03-02T14:58:12.422Z,18.70
2023-03-02T15:01:19.858Z,17.10
2023-03-02T15:04:27.004Z,21.90
2023-03-02T15:07:34.421Z,19.60
2023-03-02T15:10:41.896Z,23.20
2023-03-02T15:13:49.167Z,22.30
2023-03-02T15:16:56.501Z,21.50
2023-03-02T15:20:04.345Z,20.90
2023-03-02T15:23:11.637Z,21.90
2023-03-02T15:26:19.200Z,20.90
2023-03-02T15:29:26.867Z,26.40
2023-03-02T15:32:34.587Z,25.20
2023-03-02T15:35:41.886Z,26.50
2023-03-02T15:38:49.129Z,27.30
2023-03-02T15:41:56.981Z,25.70
2023-03-02T15:45:04.403Z,24.80
2023-03-02T15:48:13.340Z,24.60
2023-03-02T15:51:21.278Z,25.10
2023-03-02T15:54:28.352Z,25.60
2023-03-02T15:57:36.383Z,24.20
2023-03-02T16:00:44.307Z,26.00
2023-03-02T16:03:51.644Z,28.40
2023-03-02T16:06:59.047Z,27.10
2023-03-02T16:10:06.799Z,25.30
2023-03-02T16:13:13.763Z,25.70
2023-03-02T16:16:21.672Z,24.70
2023-03-02T16:19:29.133Z,25.50
2023-03-02T16:22:36.661Z,24.80
2023-03-02T16:25:43.989Z,28.10
2023-03-02T16:28:51.245Z,28.60
2023-03-02T16:31:58.718Z,29.00
2023-03-02T16:35:06.512Z,31.00
2023-03-02T16:38:13.776Z,29.40
2023-03-02T16:41:21.521Z,30.10
2023-03-02T16:44:28.815Z,28.70
2023-03-02T16:47:36.189Z,33.80
2023-03-02T16:50:44.249Z,39.00
2023-03-02T16:53:51.844Z,37.80
2023-03-02T16:56:59.139Z,43.70
2023-03-02T17:00:06.852Z,37.70
2023-03-02T17:03:13.902Z,39.50
2023-03-02T17:06:21.543Z,45.10
2023-03-02T17:09:28.929Z,42.40
2023-03-02T17:12:35.834Z,43.60
2023-03-02T17:15:44.228Z,40.30
2023-03-02T17:18:51.262Z,43.80
2023-03-02T17:21:59.353Z,55.50
2023-03-02T17:25:06.404Z,63.40
2023-03-02T17:28:14.524Z,67.10
2023-03-02T17:31:21.949Z,63.80
2023-03-02T17:34:29.490Z,78.60
2023-03-02T17:37:37.156Z,98.60
2023-03-02T17:40:45.343Z,79.80
2023-03-02T17:43:52.430Z,72.70
2023-03-02T17:47:00.593Z,77.40
2023-03-02T17:50:07.759Z,75.90
2023-03-02T17:53:16.156Z,73.50
2023-03-02T17:56:23.813Z,77.60
2023-03-02T17:59:31.322Z,76.40
2023-03-02T18:02:38.865Z,82.60
2023-03-02T18:05:46.543Z,135.00
2023-03-02T18:08:54.081Z,80.10
2023-03-02T18:12:01.527Z,82.10
2023-03-02T18:15:09.456Z,102.50
2023-03-02T18:18:16.839Z,95.50
2023-03-02T18:21:24.407Z,87.40
2023-03-02T18:24:32.347Z,99.10
2023-03-02T18:27:39.971Z,93.40
2023-03-02T18:30:47.072Z,91.70
2023-03-02T18:33:55.021Z,104.00
2023-03-02T18:37:02.131Z,103.50
2023-03-02T18:40:10.120Z,106.00
2023-03-02T18:43:17.757Z,95.00
2023-03-02T18:46:24.824Z,116.70
2023-03-02T18:49:32.175Z,92.20
2023-03-02T18:52:40.202Z,96.30
2023-03-02T18:55:47.524Z,84.80
2023-03-02T18:58:54.832Z,80.40
2023-03-02T19:02:02.068Z,77.70
2023-03-02T19:05:09.484Z,90.50
2023-03-02T19:08:16.866Z,94.10
2023-03-02T19:11:24.202Z,215.90
2023-03-02T19:14:32.127Z,91.10
2023-03-02T19:17:39.441Z,88.60
2023-03-02T19:20:46.972Z,94.90
2023-03-02T19:23:54.363Z,114.60
2023-03-02T19:27:02.774Z,108.50
2023-03-02T19:30:10.374Z,112.40
2023-03-02T19:33:18.546Z,102.60
2023-03-02T19:36:25.585Z,96.10
2023-03-02T19:39:33.144Z,86.90
2023-03-02T19:42:40.800Z,113.40
2023-03-02T19:45:47.901Z,103.30
2023-03-02T19:48:55.303Z,90.20
2023-03-02T19:52:04.302Z,98.80
2023-03-02T19:55:12.522Z,108.30
2023-03-02T19:58:20.389Z,100.50
2023-03-02T20:01:27.916Z,117.70
2023-03-02T20:04:35.386Z,91.80
2023-03-02T20:07:42.936Z,192.40
2023-03-02T20:10:50.375Z,101.60
2023-03-02T20:13:57.886Z,103.00
2023-03-02T20:17:05.425Z,83.70
2023-03-02T20:20:12.566Z,97.80
2023-03-02T20:23:19.855Z,119.10
2023-03-02T20:26:26.839Z,141.70
2023-03-02T20:29:34.521Z,111.50
2023-03-02T20:32:42.053Z,82.70
2023-03-02T20:35:49.203Z,158.50
2023-03-02T20:38:56.930Z,108.30
2023-03-02T20:42:04.479Z,105.20
2023-03-02T20:45:11.716Z,86.70
2023-03-02T20:48:19.370Z,100.20
2023-03-02T20:51:26.668Z,87.00
2023-03-02T20:54:34.017Z,107.40
2023-03-02T20:57:41.753Z,100.90
2023-03-02T21:00:48.834Z,86.20
2023-03-02T21:03:56.548Z,110.40
2023-03-02T21:07:05.005Z,79.80
2023-03-02T21:10:12.468Z,82.20
2023-03-02T21:13:20.205Z,98.90
2023-03-02T21:16:28.230Z,106.50
2023-03-02T21:19:35.523Z,109.10
2023-03-02T21:22:43.394Z,121.50
2023-03-02T21:25:50.727Z,137.90
2023-03-02T21:28:58.002Z,131.20
2023-03-02T21:32:05.966Z,130.80
2023-03-02T21:35:12.925Z,132.30
2023-03-02T21:38:20.194Z,194.00
2023-03-02T21:41:28.041Z,133.50
2023-03-02T21:44:35.268Z,151.10
2023-03-02T21:47:42.507Z,135.80
2023-03-02T21:50:49.797Z,101.70
2023-03-02T21:53:57.566Z,147.80
2023-03-02T21:57:04.865Z,149.40
2023-03-02T22:00:11.822Z,121.80
2023-03-02T22:03:19.237Z,122.50
2023-03-02T22:06:26.746Z,158.00
2023-03-02T22:09:34.028Z,113.60
2023-03-02T22:12:41.642Z,99.50
2023-03-02T22:15:49.047Z,82.50
2023-03-02T22:18:56.670Z,101.00
2023-03-02T22:22:04.652Z,87.80
2023-03-02T22:25:11.680Z,82.40
2023-03-02T22:28:19.656Z,74.60
2023-03-02T22:31:27.533Z,79.90
2023-03-02T22:34:34.543Z,69.90
2023-03-02T22:37:42.457Z,80.10
2023-03-02T22:40:49.914Z,82.30
2023-03-02T22:43:57.307Z,79.40
2023-03-02T22:47:05.066Z,80.50
2023-03-02T22:50:12.405Z,68.90
2023-03-02T22:53:19.728Z,78.00
2023-03-02T22:56:27.433Z,76.40
2023-03-02T22:59:34.637Z,64.80
2023-03-02T23:02:42.033Z,80.00
2023-03-02T23:05:49.942Z,63.30
2023-03-02T23:08:57.369Z,68.30
2023-03-02T23:12:04.760Z,69.30
2023-03-02T23:15:11.867Z,80.80
2023-03-02T23:18:19.312Z,73.10
2023-03-02T23:21:28.241Z,77.00
2023-03-02T23:24:35.592Z,77.50
2023-03-02T23:27:43.543Z,68.90
2023-03-02T23:30:50.610Z,54.50
2023-03-02T23:33:58.196Z,77.40
2023-03-02T23:37:05.844Z,65.10
2023-03-02T23:40:13.170Z,54.70
2023-03-02T23:43:20.422Z,67.20
2023-03-02T23:46:28.116Z,69.70
2023-03-02T23:49:35.011Z,74.40
2023-03-02T23:52:42.885Z,54.70
2023-03-02T23:55:50.718Z,56.30
2023-03-02T23:58:57.968Z,63.90
